sensor_id;sensor_type;location;lat;lon;timestamp;temperature;humidity
7970;DHT22;4030;52.362;9.206;2022-12-18T00:03:47;-1.60;56.60
7970;DHT22;4030;52.362;9.206;2022-12-18T00:08:41;-1.60;51.80
7970;DHT22;4030;52.362;9.206;2022-12-18T00:11:10;-1.30;56.70
7970;DHT22;4030;52.362;9.206;2022-12-18T00:13:37;-1.40;56.70
7970;DHT22;4030;52.362;9.206;2022-12-18T00:16:05;-1.70;56.60
7970;DHT22;4030;52.362;9.206;2022-12-18T00:18:33;-1.50;56.90
7970;DHT22;4030;52.362;9.206;2022-12-18T00:21:01;-1.40;57.10
7970;DHT22;4030;52.362;9.206;2022-12-18T00:23:29;-1.70;54.70
7970;DHT22;4030;52.362;9.206;2022-12-18T00:26:00;-1.40;57.10
7970;DHT22;4030;52.362;9.206;2022-12-18T00:28:27;-1.40;53.90
7970;DHT22;4030;52.362;9.206;2022-12-18T00:31:20;-1.90;54.00
7970;DHT22;4030;52.362;9.206;2022-12-18T00:33:48;-1.40;57.30
7970;DHT22;4030;52.362;9.206;2022-12-18T00:36:19;-1.70;57.20
7970;DHT22;4030;52.362;9.206;2022-12-18T00:38:47;-1.50;57.20
7970;DHT22;4030;52.362;9.206;2022-12-18T00:41:15;-2.00;51.70
7970;DHT22;4030;52.362;9.206;2022-12-18T00:44:05;-1.60;57.10
7970;DHT22;4030;52.362;9.206;2022-12-18T00:46:31;-1.90;55.10
7970;DHT22;4030;52.362;9.206;2022-12-18T00:48:57;-1.50;53.40
7970;DHT22;4030;52.362;9.206;2022-12-18T00:51:24;-1.80;51.60
7970;DHT22;4030;52.362;9.206;2022-12-18T00:56:17;-1.60;57.00
7970;DHT22;4030;52.362;9.206;2022-12-18T00:58:42;-1.60;57.20
7970;DHT22;4030;52.362;9.206;2022-12-18T01:01:08;-1.80;57.10
7970;DHT22;4030;52.362;9.206;2022-12-18T01:03:34;-2.00;53.90
7970;DHT22;4030;52.362;9.206;2022-12-18T01:06:11;-1.60;56.00
7970;DHT22;4030;52.362;9.206;2022-12-18T01:08:38;-1.90;52.40
7970;DHT22;4030;52.362;9.206;2022-12-18T01:11:15;-1.80;54.70
7970;DHT22;4030;52.362;9.206;2022-12-18T01:13:43;-2.10;57.30
7970;DHT22;4030;52.362;9.206;2022-12-18T01:16:10;-2.00;57.40
7970;DHT22;4030;52.362;9.206;2022-12-18T01:18:37;-1.80;55.50
7970;DHT22;4030;52.362;9.206;2022-12-18T01:21:07;-1.70;57.50
7970;DHT22;4030;52.362;9.206;2022-12-18T01:26:08;-2.00;52.20
7970;DHT22;4030;52.362;9.206;2022-12-18T01:28:37;-1.70;57.70
7970;DHT22;4030;52.362;9.206;2022-12-18T01:31:19;-2.10;57.40
7970;DHT22;4030;52.362;9.206;2022-12-18T01:36:18;-1.80;53.40
7970;DHT22;4030;52.362;9.206;2022-12-18T01:38:46;-1.90;57.60
7970;DHT22;4030;52.362;9.206;2022-12-18T01:41:13;-2.10;53.70
7970;DHT22;4030;52.362;9.206;2022-12-18T01:46:18;-2.10;57.50
7970;DHT22;4030;52.362;9.206;2022-12-18T01:48:47;-2.10;57.10
7970;DHT22;4030;52.362;9.206;2022-12-18T01:51:15;-2.20;57.30
7970;DHT22;4030;52.362;9.206;2022-12-18T01:53:43;-2.10;52.10
7970;DHT22;4030;52.362;9.206;2022-12-18T01:56:13;-2.00;53.20
7970;DHT22;4030;52.362;9.206;2022-12-18T01:59:01;-2.10;52.10
7970;DHT22;4030;52.362;9.206;2022-12-18T02:01:29;-2.10;57.40
7970;DHT22;4030;52.362;9.206;2022-12-18T02:03:56;-2.20;57.30
7970;DHT22;4030;52.362;9.206;2022-12-18T02:06:36;-1.80;57.60
7970;DHT22;4030;52.362;9.206;2022-12-18T02:09:15;-2.00;52.40
7970;DHT22;4030;52.362;9.206;2022-12-18T02:12:13;-2.20;52.10
7970;DHT22;4030;52.362;9.206;2022-12-18T02:15:09;-2.20;52.20
7970;DHT22;4030;52.362;9.206;2022-12-18T02:17:54;-2.20;52.30
7970;DHT22;4030;52.362;9.206;2022-12-18T02:20:35;-1.60;58.00
7970;DHT22;4030;52.362;9.206;2022-12-18T02:31:26;-2.20;57.70
7970;DHT22;4030;52.362;9.206;2022-12-18T02:33:56;-2.20;52.60
7970;DHT22;4030;52.362;9.206;2022-12-18T02:36:27;-2.40;57.50
7970;DHT22;4030;52.362;9.206;2022-12-18T02:38:54;-2.30;52.60
7970;DHT22;4030;52.362;9.206;2022-12-18T02:41:25;-2.20;57.70
7970;DHT22;4030;52.362;9.206;2022-12-18T02:43:57;-2.20;57.80
7970;DHT22;4030;52.362;9.206;2022-12-18T02:46:48;-2.30;57.60
7970;DHT22;4030;52.362;9.206;2022-12-18T02:49:40;-2.20;57.80
7970;DHT22;4030;52.362;9.206;2022-12-18T02:58:14;-2.30;52.70
7970;DHT22;4030;52.362;9.206;2022-12-18T03:03:29;-2.30;52.60
7970;DHT22;4030;52.362;9.206;2022-12-18T03:06:07;-2.50;52.40
7970;DHT22;4030;52.362;9.206;2022-12-18T03:08:39;-2.40;57.80
7970;DHT22;4030;52.362;9.206;2022-12-18T03:11:12;-2.40;56.30
7970;DHT22;4030;52.362;9.206;2022-12-18T03:13:54;-2.30;52.60
7970;DHT22;4030;52.362;9.206;2022-12-18T03:16:27;-2.30;57.80
7970;DHT22;4030;52.362;9.206;2022-12-18T03:18:57;-2.50;57.40
7970;DHT22;4030;52.362;9.206;2022-12-18T03:21:29;-2.20;57.70
7970;DHT22;4030;52.362;9.206;2022-12-18T03:24:09;-2.60;57.40
7970;DHT22;4030;52.362;9.206;2022-12-18T03:26:40;-2.60;57.30
7970;DHT22;4030;52.362;9.206;2022-12-18T03:29:19;-2.40;57.60
7970;DHT22;4030;52.362;9.206;2022-12-18T03:31:58;-2.40;57.60
7970;DHT22;4030;52.362;9.206;2022-12-18T03:34:31;-2.40;53.10
7970;DHT22;4030;52.362;9.206;2022-12-18T03:36:59;-2.60;57.40
7970;DHT22;4030;52.362;9.206;2022-12-18T03:42:37;-2.60;53.60
7970;DHT22;4030;52.362;9.206;2022-12-18T03:48:01;-2.30;57.70
7970;DHT22;4030;52.362;9.206;2022-12-18T03:50:53;-2.80;57.30
7970;DHT22;4030;52.362;9.206;2022-12-18T03:56:08;-2.70;57.30
7970;DHT22;4030;52.362;9.206;2022-12-18T03:58:37;-2.70;55.20
7970;DHT22;4030;52.362;9.206;2022-12-18T04:01:05;-2.40;57.50
7970;DHT22;4030;52.362;9.206;2022-12-18T04:03:33;-2.50;52.40
7970;DHT22;4030;52.362;9.206;2022-12-18T04:06:00;-2.50;57.40
7970;DHT22;4030;52.362;9.206;2022-12-18T04:13:29;-2.90;52.50
7970;DHT22;4030;52.362;9.206;2022-12-18T04:15:58;-2.60;57.40
7970;DHT22;4030;52.362;9.206;2022-12-18T04:18:24;-2.50;57.50
7970;DHT22;4030;52.362;9.206;2022-12-18T04:20:49;-2.60;55.20
7970;DHT22;4030;52.362;9.206;2022-12-18T04:23:15;-2.80;57.30
7970;DHT22;4030;52.362;9.206;2022-12-18T04:25:41;-2.50;55.00
7970;DHT22;4030;52.362;9.206;2022-12-18T04:32:59;-2.60;53.50
7970;DHT22;4030;52.362;9.206;2022-12-18T04:45:09;-2.60;53.70
7970;DHT22;4030;52.362;9.206;2022-12-18T04:52:27;-3.00;56.10
7970;DHT22;4030;52.362;9.206;2022-12-18T05:02:12;-2.60;56.90
7970;DHT22;4030;52.362;9.206;2022-12-18T05:07:04;-2.40;56.10
7970;DHT22;4030;52.362;9.206;2022-12-18T05:16:48;-2.80;54.60
7970;DHT22;4030;52.362;9.206;2022-12-18T05:26:33;-2.40;58.90
7970;DHT22;4030;52.362;9.206;2022-12-18T05:41:09;-2.50;55.10
7970;DHT22;4030;52.362;9.206;2022-12-18T05:43:36;-2.40;56.00
7970;DHT22;4030;52.362;9.206;2022-12-18T05:46:08;-2.70;59.00
7970;DHT22;4030;52.362;9.206;2022-12-18T05:48:38;-2.00;59.60
7970;DHT22;4030;52.362;9.206;2022-12-18T05:51:06;-2.40;59.30
7970;DHT22;4030;52.362;9.206;2022-12-18T05:53:33;-2.30;58.10
7970;DHT22;4030;52.362;9.206;2022-12-18T05:56:02;-2.60;59.30
7970;DHT22;4030;52.362;9.206;2022-12-18T06:00:55;-2.70;57.50
7970;DHT22;4030;52.362;9.206;2022-12-18T06:03:21;-2.60;57.70
7970;DHT22;4030;52.362;9.206;2022-12-18T06:08:13;-2.50;55.40
7970;DHT22;4030;52.362;9.206;2022-12-18T06:13:06;-2.60;58.80
7970;DHT22;4030;52.362;9.206;2022-12-18T06:15:35;-2.60;59.90
7970;DHT22;4030;52.362;9.206;2022-12-18T06:27:47;-2.40;55.90
7970;DHT22;4030;52.362;9.206;2022-12-18T06:30:13;-2.50;60.30
7970;DHT22;4030;52.362;9.206;2022-12-18T06:37:32;-2.40;57.90
7970;DHT22;4030;52.362;9.206;2022-12-18T06:42:26;-2.70;60.60
7970;DHT22;4030;52.362;9.206;2022-12-18T06:44:51;-2.50;60.90
7970;DHT22;4030;52.362;9.206;2022-12-18T06:47:18;-2.30;61.30
7970;DHT22;4030;52.362;9.206;2022-12-18T06:49:43;-2.10;61.60
7970;DHT22;4030;52.362;9.206;2022-12-18T06:54:35;-2.30;61.50
7970;DHT22;4030;52.362;9.206;2022-12-18T06:57:01;-2.30;61.30
7970;DHT22;4030;52.362;9.206;2022-12-18T07:09:11;-2.60;59.80
7970;DHT22;4030;52.362;9.206;2022-12-18T07:18:56;-2.30;57.00
7970;DHT22;4030;52.362;9.206;2022-12-18T07:21:23;-2.40;59.50
7970;DHT22;4030;52.362;9.206;2022-12-18T07:23:49;-1.80;59.60
7970;DHT22;4030;52.362;9.206;2022-12-18T07:26:17;-2.30;57.00
7970;DHT22;4030;52.362;9.206;2022-12-18T07:28:44;-2.30;61.80
7970;DHT22;4030;52.362;9.206;2022-12-18T07:31:13;-2.10;58.30
7970;DHT22;4030;52.362;9.206;2022-12-18T07:33:40;-2.30;61.90
7970;DHT22;4030;52.362;9.206;2022-12-18T07:36:07;-2.20;62.10
7970;DHT22;4030;52.362;9.206;2022-12-18T07:38:34;-2.20;57.30
7970;DHT22;4030;52.362;9.206;2022-12-18T07:41:05;-2.50;57.70
7970;DHT22;4030;52.362;9.206;2022-12-18T07:43:33;-2.00;62.50
7970;DHT22;4030;52.362;9.206;2022-12-18T07:50:53;-2.10;62.40
7970;DHT22;4030;52.362;9.206;2022-12-18T07:55:44;-2.20;62.40
7970;DHT22;4030;52.362;9.206;2022-12-18T08:03:02;-2.20;58.60
7970;DHT22;4030;52.362;9.206;2022-12-18T08:10:21;-1.70;62.80
7970;DHT22;4030;52.362;9.206;2022-12-18T08:12:51;-1.80;60.40
7970;DHT22;4030;52.362;9.206;2022-12-18T08:15:17;-1.90;58.20
7970;DHT22;4030;52.362;9.206;2022-12-18T08:20:09;-1.90;57.70
7970;DHT22;4030;52.362;9.206;2022-12-18T08:22:38;-1.80;59.50
7970;DHT22;4030;52.362;9.206;2022-12-18T08:25:05;-1.90;62.50
7970;DHT22;4030;52.362;9.206;2022-12-18T08:27:31;-1.80;59.20
7970;DHT22;4030;52.362;9.206;2022-12-18T08:32:24;-1.70;57.70
7970;DHT22;4030;52.362;9.206;2022-12-18T08:44:54;-1.40;62.50
7970;DHT22;4030;52.362;9.206;2022-12-18T08:47:20;-1.60;62.30
7970;DHT22;4030;52.362;9.206;2022-12-18T08:49:46;-1.60;60.60
7970;DHT22;4030;52.362;9.206;2022-12-18T08:52:14;-1.40;57.80
7970;DHT22;4030;52.362;9.206;2022-12-18T08:54:40;-1.10;61.80
7970;DHT22;4030;52.362;9.206;2022-12-18T09:14:09;0.80;56.90
7970;DHT22;4030;52.362;9.206;2022-12-18T09:16:35;2.10;58.80
7970;DHT22;4030;52.362;9.206;2022-12-18T09:19:02;3.30;54.20
7970;DHT22;4030;52.362;9.206;2022-12-18T09:21:31;4.60;50.70
7970;DHT22;4030;52.362;9.206;2022-12-18T09:26:25;6.20;47.70
7970;DHT22;4030;52.362;9.206;2022-12-18T09:28:52;6.60;46.70
7970;DHT22;4030;52.362;9.206;2022-12-18T09:31:20;6.90;43.20
7970;DHT22;4030;52.362;9.206;2022-12-18T09:36:15;6.70;42.60
7970;DHT22;4030;52.362;9.206;2022-12-18T09:38:42;5.80;45.80
7970;DHT22;4030;52.362;9.206;2022-12-18T09:44:40;4.90;48.90
7970;DHT22;4030;52.362;9.206;2022-12-18T09:47:15;4.60;47.20
7970;DHT22;4030;52.362;9.206;2022-12-18T09:49:46;4.40;47.90
7970;DHT22;4030;52.362;9.206;2022-12-18T09:55:05;5.30;50.40
7970;DHT22;4030;52.362;9.206;2022-12-18T09:57:39;5.80;48.80
7970;DHT22;4030;52.362;9.206;2022-12-18T10:00:18;5.60;47.90
7970;DHT22;4030;52.362;9.206;2022-12-18T10:02:46;5.80;46.70
7970;DHT22;4030;52.362;9.206;2022-12-18T10:08:24;6.90;46.90
7970;DHT22;4030;52.362;9.206;2022-12-18T10:10:55;7.50;46.00
7970;DHT22;4030;52.362;9.206;2022-12-18T10:13:33;7.60;45.90
7970;DHT22;4030;52.362;9.206;2022-12-18T10:19:37;8.70;43.30
7970;DHT22;4030;52.362;9.206;2022-12-18T10:22:25;9.30;43.80
7970;DHT22;4030;52.362;9.206;2022-12-18T10:28:15;9.50;42.80
7970;DHT22;4030;52.362;9.206;2022-12-18T10:30:42;9.80;43.00
7970;DHT22;4030;52.362;9.206;2022-12-18T10:33:18;9.40;42.20
7970;DHT22;4030;52.362;9.206;2022-12-18T10:35:45;9.30;43.80
7970;DHT22;4030;52.362;9.206;2022-12-18T10:40:55;8.40;44.30
7970;DHT22;4030;52.362;9.206;2022-12-18T10:43:37;8.20;46.10
7970;DHT22;4030;52.362;9.206;2022-12-18T10:48:40;8.40;45.60
7970;DHT22;4030;52.362;9.206;2022-12-18T10:51:24;9.00;44.80
7970;DHT22;4030;52.362;9.206;2022-12-18T10:54:06;9.50;43.70
7970;DHT22;4030;52.362;9.206;2022-12-18T10:56:40;9.60;43.00
7970;DHT22;4030;52.362;9.206;2022-12-18T10:59:11;9.50;43.00
7970;DHT22;4030;52.362;9.206;2022-12-18T11:01:54;9.50;45.10
7970;DHT22;4030;52.362;9.206;2022-12-18T11:04:23;9.00;43.70
7970;DHT22;4030;52.362;9.206;2022-12-18T11:09:31;8.50;45.40
7970;DHT22;4030;52.362;9.206;2022-12-18T11:12:03;8.80;45.20
7970;DHT22;4030;52.362;9.206;2022-12-18T11:17:34;8.10;46.70
7970;DHT22;4030;52.362;9.206;2022-12-18T11:20:03;8.00;46.60
7970;DHT22;4030;52.362;9.206;2022-12-18T11:22:34;8.10;45.10
7970;DHT22;4030;52.362;9.206;2022-12-18T11:25:02;8.30;45.50
7970;DHT22;4030;52.362;9.206;2022-12-18T11:27:29;10.30;43.30
7970;DHT22;4030;52.362;9.206;2022-12-18T11:30:09;12.00;39.10
7970;DHT22;4030;52.362;9.206;2022-12-18T11:32:54;14.00;36.30
7970;DHT22;4030;52.362;9.206;2022-12-18T11:35:39;15.30;32.90
7970;DHT22;4030;52.362;9.206;2022-12-18T11:38:26;15.00;31.90
7970;DHT22;4030;52.362;9.206;2022-12-18T11:43:48;13.50;35.00
7970;DHT22;4030;52.362;9.206;2022-12-18T11:46:28;12.20;35.90
7970;DHT22;4030;52.362;9.206;2022-12-18T11:52:10;11.00;38.20
7970;DHT22;4030;52.362;9.206;2022-12-18T11:54:42;10.80;39.50
7970;DHT22;4030;52.362;9.206;2022-12-18T11:57:15;9.90;41.20
7970;DHT22;4030;52.362;9.206;2022-12-18T12:00:07;9.30;41.90
7970;DHT22;4030;52.362;9.206;2022-12-18T12:15:01;7.10;45.90
7970;DHT22;4030;52.362;9.206;2022-12-18T12:23:34;6.50;48.00
7970;DHT22;4030;52.362;9.206;2022-12-18T12:25:58;6.30;47.80
7970;DHT22;4030;52.362;9.206;2022-12-18T12:43:41;5.10;49.80
7970;DHT22;4030;52.362;9.206;2022-12-18T12:46:10;5.00;51.80
7970;DHT22;4030;52.362;9.206;2022-12-18T12:48:59;4.60;51.90
7970;DHT22;4030;52.362;9.206;2022-12-18T12:51:33;4.70;52.30
7970;DHT22;4030;52.362;9.206;2022-12-18T12:54:04;4.40;51.40
7970;DHT22;4030;52.362;9.206;2022-12-18T12:57:04;4.70;53.00
7970;DHT22;4030;52.362;9.206;2022-12-18T13:02:48;4.60;53.80
7970;DHT22;4030;52.362;9.206;2022-12-18T13:05:33;4.30;53.80
7970;DHT22;4030;52.362;9.206;2022-12-18T13:08:26;4.30;52.20
7970;DHT22;4030;52.362;9.206;2022-12-18T13:10:58;3.90;53.20
7970;DHT22;4030;52.362;9.206;2022-12-18T13:13:56;4.50;53.90
7970;DHT22;4030;52.362;9.206;2022-12-18T13:16:24;4.00;52.60
7970;DHT22;4030;52.362;9.206;2022-12-18T13:23:53;3.90;53.10
7970;DHT22;4030;52.362;9.206;2022-12-18T13:31:58;3.70;53.40
7970;DHT22;4030;52.362;9.206;2022-12-18T13:34:27;3.40;55.60
7970;DHT22;4030;52.362;9.206;2022-12-18T13:45:42;3.50;53.90
7970;DHT22;4030;52.362;9.206;2022-12-18T13:48:31;3.40;55.10
7970;DHT22;4030;52.362;9.206;2022-12-18T13:51:01;3.20;56.00
7970;DHT22;4030;52.362;9.206;2022-12-18T13:56:28;3.60;56.70
7970;DHT22;4030;52.362;9.206;2022-12-18T14:01:50;3.30;56.70
7970;DHT22;4030;52.362;9.206;2022-12-18T14:04:33;3.20;54.40
7970;DHT22;4030;52.362;9.206;2022-12-18T14:07:18;3.10;54.40
7970;DHT22;4030;52.362;9.206;2022-12-18T14:09:59;2.80;56.60
7970;DHT22;4030;52.362;9.206;2022-12-18T14:21:04;2.90;54.60
7970;DHT22;4030;52.362;9.206;2022-12-18T14:26:27;2.80;54.60
7970;DHT22;4030;52.362;9.206;2022-12-18T14:29:16;2.90;57.40
7970;DHT22;4030;52.362;9.206;2022-12-18T14:31:44;2.90;57.50
7970;DHT22;4030;52.362;9.206;2022-12-18T14:34:16;2.70;57.50
7970;DHT22;4030;52.362;9.206;2022-12-18T14:36:52;2.60;56.30
7970;DHT22;4030;52.362;9.206;2022-12-18T14:39:18;2.60;57.40
7970;DHT22;4030;52.362;9.206;2022-12-18T14:41:44;2.70;57.60
7970;DHT22;4030;52.362;9.206;2022-12-18T14:44:12;2.80;58.10
7970;DHT22;4030;52.362;9.206;2022-12-18T14:46:42;2.80;58.80
7970;DHT22;4030;52.362;9.206;2022-12-18T14:49:29;2.70;56.50
7970;DHT22;4030;52.362;9.206;2022-12-18T14:51:58;2.50;59.10
7970;DHT22;4030;52.362;9.206;2022-12-18T14:54:25;2.50;59.20
7970;DHT22;4030;52.362;9.206;2022-12-18T14:59:29;2.70;59.20
7970;DHT22;4030;52.362;9.206;2022-12-18T15:05:04;2.40;57.20
7970;DHT22;4030;52.362;9.206;2022-12-18T15:07:45;2.60;57.20
7970;DHT22;4030;52.362;9.206;2022-12-18T15:10:31;2.60;58.00
7970;DHT22;4030;52.362;9.206;2022-12-18T15:36:23;2.20;56.00
7970;DHT22;4030;52.362;9.206;2022-12-18T15:38:50;2.20;56.80
7970;DHT22;4030;52.362;9.206;2022-12-18T15:41:20;2.40;58.50
7970;DHT22;4030;52.362;9.206;2022-12-18T15:43:51;2.10;56.80
7970;DHT22;4030;52.362;9.206;2022-12-18T15:46:22;2.10;58.10
7970;DHT22;4030;52.362;9.206;2022-12-18T15:48:53;2.00;55.30
7970;DHT22;4030;52.362;9.206;2022-12-18T15:51:27;2.10;58.10
7970;DHT22;4030;52.362;9.206;2022-12-18T15:53:56;2.20;55.60
7970;DHT22;4030;52.362;9.206;2022-12-18T15:56:23;2.40;57.20
7970;DHT22;4030;52.362;9.206;2022-12-18T15:59:15;1.90;57.70
7970;DHT22;4030;52.362;9.206;2022-12-18T16:01:48;2.30;58.10
7970;DHT22;4030;52.362;9.206;2022-12-18T16:04:16;2.10;55.00
7970;DHT22;4030;52.362;9.206;2022-12-18T16:06:46;1.80;56.10
7970;DHT22;4030;52.362;9.206;2022-12-18T16:09:12;2.10;57.60
7970;DHT22;4030;52.362;9.206;2022-12-18T16:11:39;2.20;56.70
7970;DHT22;4030;52.362;9.206;2022-12-18T16:17:00;1.90;57.50
7970;DHT22;4030;52.362;9.206;2022-12-18T16:19:28;2.00;54.60
7970;DHT22;4030;52.362;9.206;2022-12-18T16:21:56;1.90;57.30
7970;DHT22;4030;52.362;9.206;2022-12-18T16:24:27;2.20;57.60
7970;DHT22;4030;52.362;9.206;2022-12-18T16:26:56;1.80;57.20
7970;DHT22;4030;52.362;9.206;2022-12-18T16:29:24;1.90;56.50
7970;DHT22;4030;52.362;9.206;2022-12-18T16:31:57;1.90;54.60
7970;DHT22;4030;52.362;9.206;2022-12-18T16:34:31;1.90;57.30
7970;DHT22;4030;52.362;9.206;2022-12-18T16:37:00;1.70;57.10
7970;DHT22;4030;52.362;9.206;2022-12-18T16:41:55;1.70;57.00
7970;DHT22;4030;52.362;9.206;2022-12-18T16:44:21;1.90;57.10
7970;DHT22;4030;52.362;9.206;2022-12-18T16:46:47;2.00;57.30
7970;DHT22;4030;52.362;9.206;2022-12-18T16:49:14;1.90;57.20
7970;DHT22;4030;52.362;9.206;2022-12-18T16:51:41;1.80;57.10
7970;DHT22;4030;52.362;9.206;2022-12-18T16:54:07;1.80;57.00
7970;DHT22;4030;52.362;9.206;2022-12-18T16:56:34;1.90;57.00
7970;DHT22;4030;52.362;9.206;2022-12-18T16:59:00;2.10;56.40
7970;DHT22;4030;52.362;9.206;2022-12-18T17:01:28;1.80;55.60
7970;DHT22;4030;52.362;9.206;2022-12-18T17:03:56;1.90;54.30
7970;DHT22;4030;52.362;9.206;2022-12-18T17:06:34;1.90;54.20
7970;DHT22;4030;52.362;9.206;2022-12-18T17:09:11;2.20;54.50
7970;DHT22;4030;52.362;9.206;2022-12-18T17:14:09;2.30;54.90
7970;DHT22;4030;52.362;9.206;2022-12-18T17:31:18;1.90;54.30
7970;DHT22;4030;52.362;9.206;2022-12-18T17:33:45;2.00;56.70
7970;DHT22;4030;52.362;9.206;2022-12-18T17:38:38;2.10;55.20
7970;DHT22;4030;52.362;9.206;2022-12-18T17:41:09;2.00;53.90
7970;DHT22;4030;52.362;9.206;2022-12-18T17:43:36;2.00;53.90
7970;DHT22;4030;52.362;9.206;2022-12-18T17:46:11;1.90;53.80
7970;DHT22;4030;52.362;9.206;2022-12-18T17:48:38;1.90;53.80
7970;DHT22;4030;52.362;9.206;2022-12-18T17:51:06;2.00;53.80
7970;DHT22;4030;52.362;9.206;2022-12-18T17:53:33;1.80;56.00
7970;DHT22;4030;52.362;9.206;2022-12-18T17:55:59;1.90;56.10
7970;DHT22;4030;52.362;9.206;2022-12-18T17:58:27;2.00;53.80
7970;DHT22;4030;52.362;9.206;2022-12-18T18:00:53;2.20;56.60
7970;DHT22;4030;52.362;9.206;2022-12-18T18:03:19;2.20;56.40
7970;DHT22;4030;52.362;9.206;2022-12-18T18:05:45;2.00;56.30
7970;DHT22;4030;52.362;9.206;2022-12-18T18:08:11;1.90;56.30
7970;DHT22;4030;52.362;9.206;2022-12-18T18:10:37;1.90;54.40
7970;DHT22;4030;52.362;9.206;2022-12-18T18:13:05;2.20;56.50
7970;DHT22;4030;52.362;9.206;2022-12-18T18:15:57;2.00;53.70
7970;DHT22;4030;52.362;9.206;2022-12-18T18:23:15;2.10;55.10
7970;DHT22;4030;52.362;9.206;2022-12-18T18:30:35;2.00;53.70
7970;DHT22;4030;52.362;9.206;2022-12-18T18:40:19;2.20;54.60
7970;DHT22;4030;52.362;9.206;2022-12-18T18:42:46;1.90;54.60
7970;DHT22;4030;52.362;9.206;2022-12-18T18:45:12;2.00;56.60
7970;DHT22;4030;52.362;9.206;2022-12-18T18:47:38;1.80;56.30
7970;DHT22;4030;52.362;9.206;2022-12-18T18:50:04;2.10;54.00
7970;DHT22;4030;52.362;9.206;2022-12-18T18:52:31;1.80;56.30
7970;DHT22;4030;52.362;9.206;2022-12-18T18:54:56;1.70;56.20
7970;DHT22;4030;52.362;9.206;2022-12-18T18:57:22;2.00;56.40
7970;DHT22;4030;52.362;9.206;2022-12-18T18:59:48;2.10;54.40
7970;DHT22;4030;52.362;9.206;2022-12-18T19:02:15;2.00;53.80
7970;DHT22;4030;52.362;9.206;2022-12-18T19:04:42;2.10;56.70
7970;DHT22;4030;52.362;9.206;2022-12-18T19:07:08;1.70;55.30
7970;DHT22;4030;52.362;9.206;2022-12-18T19:12:01;1.80;55.80
7970;DHT22;4030;52.362;9.206;2022-12-18T19:17:12;2.00;54.50
7970;DHT22;4030;52.362;9.206;2022-12-18T19:39:17;2.00;53.90
7970;DHT22;4030;52.362;9.206;2022-12-18T19:41:43;2.30;55.20
7970;DHT22;4030;52.362;9.206;2022-12-18T19:44:11;1.80;55.20
7970;DHT22;4030;52.362;9.206;2022-12-18T19:46:38;1.90;56.40
7970;DHT22;4030;52.362;9.206;2022-12-18T19:49:04;2.10;56.60
7970;DHT22;4030;52.362;9.206;2022-12-18T19:51:31;2.10;56.50
7970;DHT22;4030;52.362;9.206;2022-12-18T19:53:57;1.80;56.40
7970;DHT22;4030;52.362;9.206;2022-12-18T19:56:25;1.80;53.90
7970;DHT22;4030;52.362;9.206;2022-12-18T19:58:53;1.80;56.40
7970;DHT22;4030;52.362;9.206;2022-12-18T20:01:21;2.00;53.80
7970;DHT22;4030;52.362;9.206;2022-12-18T20:03:47;2.20;55.30
7970;DHT22;4030;52.362;9.206;2022-12-18T20:08:58;2.00;53.80
7970;DHT22;4030;52.362;9.206;2022-12-18T20:11:31;1.90;56.50
7970;DHT22;4030;52.362;9.206;2022-12-18T20:13:57;2.30;56.80
7970;DHT22;4030;52.362;9.206;2022-12-18T20:31:04;2.10;54.00
7970;DHT22;4030;52.362;9.206;2022-12-18T20:36:04;2.40;55.50
7970;DHT22;4030;52.362;9.206;2022-12-18T20:38:37;2.20;56.70
7970;DHT22;4030;52.362;9.206;2022-12-18T20:41:08;2.10;56.70
7970;DHT22;4030;52.362;9.206;2022-12-18T20:43:36;2.50;57.20
7970;DHT22;4030;52.362;9.206;2022-12-18T20:46:04;2.20;54.30
7970;DHT22;4030;52.362;9.206;2022-12-18T20:48:31;2.10;54.70
7970;DHT22;4030;52.362;9.206;2022-12-18T20:51:11;2.40;57.20
7970;DHT22;4030;52.362;9.206;2022-12-18T20:53:38;1.90;56.90
7970;DHT22;4030;52.362;9.206;2022-12-18T20:56:12;2.00;55.00
7970;DHT22;4030;52.362;9.206;2022-12-18T20:58:50;2.00;55.00
7970;DHT22;4030;52.362;9.206;2022-12-18T21:01:19;1.90;57.10
7970;DHT22;4030;52.362;9.206;2022-12-18T21:03:46;2.30;56.80
7970;DHT22;4030;52.362;9.206;2022-12-18T21:06:14;2.10;57.40
7970;DHT22;4030;52.362;9.206;2022-12-18T21:08:41;2.30;54.90
7970;DHT22;4030;52.362;9.206;2022-12-18T21:11:29;2.30;56.30
7970;DHT22;4030;52.362;9.206;2022-12-18T21:14:17;2.30;55.10
7970;DHT22;4030;52.362;9.206;2022-12-18T21:16:44;1.90;57.10
7970;DHT22;4030;52.362;9.206;2022-12-18T21:19:11;2.10;55.30
7970;DHT22;4030;52.362;9.206;2022-12-18T21:21:38;2.40;58.30
7970;DHT22;4030;52.362;9.206;2022-12-18T21:24:05;2.40;58.10
7970;DHT22;4030;52.362;9.206;2022-12-18T21:29:01;2.30;57.60
7970;DHT22;4030;52.362;9.206;2022-12-18T21:31:31;2.40;58.00
7970;DHT22;4030;52.362;9.206;2022-12-18T21:33:58;2.20;57.20
7970;DHT22;4030;52.362;9.206;2022-12-18T21:36:24;2.40;56.50
7970;DHT22;4030;52.362;9.206;2022-12-18T21:38:52;2.40;55.90
7970;DHT22;4030;52.362;9.206;2022-12-18T21:41:19;2.20;58.10
7970;DHT22;4030;52.362;9.206;2022-12-18T21:44:20;2.30;56.00
7970;DHT22;4030;52.362;9.206;2022-12-18T21:46:47;2.30;56.00
7970;DHT22;4030;52.362;9.206;2022-12-18T21:49:15;2.30;58.60
7970;DHT22;4030;52.362;9.206;2022-12-18T21:51:43;2.40;56.10
7970;DHT22;4030;52.362;9.206;2022-12-18T21:57:02;2.10;56.10
7970;DHT22;4030;52.362;9.206;2022-12-18T21:59:32;2.40;56.30
7970;DHT22;4030;52.362;9.206;2022-12-18T22:02:03;2.50;58.80
7970;DHT22;4030;52.362;9.206;2022-12-18T22:09:24;2.50;56.70
7970;DHT22;4030;52.362;9.206;2022-12-18T22:11:51;2.20;58.40
7970;DHT22;4030;52.362;9.206;2022-12-18T22:14:19;2.40;56.40
7970;DHT22;4030;52.362;9.206;2022-12-18T22:16:46;2.60;58.50
7970;DHT22;4030;52.362;9.206;2022-12-18T22:21:40;2.20;58.90
7970;DHT22;4030;52.362;9.206;2022-12-18T22:24:12;2.20;57.00
7970;DHT22;4030;52.362;9.206;2022-12-18T22:26:42;2.40;59.10
7970;DHT22;4030;52.362;9.206;2022-12-18T22:29:13;2.40;59.10
7970;DHT22;4030;52.362;9.206;2022-12-18T22:31:59;2.30;59.10
7970;DHT22;4030;52.362;9.206;2022-12-18T22:34:25;2.30;57.00
7970;DHT22;4030;52.362;9.206;2022-12-18T22:36:50;2.40;59.20
7970;DHT22;4030;52.362;9.206;2022-12-18T22:39:22;2.60;59.20
7970;DHT22;4030;52.362;9.206;2022-12-18T22:41:49;2.70;57.80
7970;DHT22;4030;52.362;9.206;2022-12-18T22:46:44;2.50;56.80
7970;DHT22;4030;52.362;9.206;2022-12-18T22:49:12;2.50;59.20
7970;DHT22;4030;52.362;9.206;2022-12-18T22:51:39;2.40;59.10
7970;DHT22;4030;52.362;9.206;2022-12-18T22:54:05;2.40;59.20
7970;DHT22;4030;52.362;9.206;2022-12-18T22:56:31;2.40;59.30
7970;DHT22;4030;52.362;9.206;2022-12-18T22:58:57;2.60;58.40
7970;DHT22;4030;52.362;9.206;2022-12-18T23:01:25;2.60;59.10
7970;DHT22;4030;52.362;9.206;2022-12-18T23:03:52;2.50;59.40
7970;DHT22;4030;52.362;9.206;2022-12-18T23:06:23;2.50;59.40
7970;DHT22;4030;52.362;9.206;2022-12-18T23:08:51;2.60;59.40
7970;DHT22;4030;52.362;9.206;2022-12-18T23:11:18;2.50;59.20
7970;DHT22;4030;52.362;9.206;2022-12-18T23:16:12;2.50;57.00
7970;DHT22;4030;52.362;9.206;2022-12-18T23:18:39;2.70;59.60
7970;DHT22;4030;52.362;9.206;2022-12-18T23:21:17;2.80;59.70
7970;DHT22;4030;52.362;9.206;2022-12-18T23:23:44;2.70;59.40
7970;DHT22;4030;52.362;9.206;2022-12-18T23:26:15;2.60;59.50
7970;DHT22;4030;52.362;9.206;2022-12-18T23:28:46;2.60;58.60
7970;DHT22;4030;52.362;9.206;2022-12-18T23:31:18;2.50;59.50
7970;DHT22;4030;52.362;9.206;2022-12-18T23:33:52;2.50;57.10
7970;DHT22;4030;52.362;9.206;2022-12-18T23:36:20;2.60;59.50
7970;DHT22;4030;52.362;9.206;2022-12-18T23:38:48;2.40;59.40
7970;DHT22;4030;52.362;9.206;2022-12-18T23:41:17;2.70;58.70
7970;DHT22;4030;52.362;9.206;2022-12-18T23:43:44;2.80;59.70
7970;DHT22;4030;52.362;9.206;2022-12-18T23:48:42;2.70;59.90
7970;DHT22;4030;52.362;9.206;2022-12-18T23:51:10;2.30;59.40
7970;DHT22;4030;52.362;9.206;2022-12-18T23:53:36;2.40;59.60
7970;DHT22;4030;52.362;9.206;2022-12-18T23:56:03;2.30;59.50
